createdAt,value
2018-09-29T00:00:05.966Z,6.77
2018-09-29T00:02:34.221Z,8.73
2018-09-29T00:05:02.503Z,6.93
2018-09-29T00:07:30.774Z,5.73
2018-09-29T00:09:59.086Z,7.23
2018-09-29T00:12:27.410Z,14.00
2018-09-29T00:14:55.657Z,9.57
2018-09-29T00:17:23.925Z,8.00
2018-09-29T00:19:52.179Z,6.93
2018-09-29T00:22:20.560Z,9.33
2018-09-29T00:24:48.943Z,6.93
2018-09-29T00:27:17.233Z,5.57
2018-09-29T00:29:45.495Z,6.93
2018-09-29T00:32:13.723Z,9.33
2018-09-29T00:34:41.986Z,8.97
2018-09-29T00:37:10.290Z,8.07
2018-09-29T00:39:38.583Z,11.20
2018-09-29T00:42:06.845Z,13.13
2018-09-29T00:44:35.113Z,13.00
2018-09-29T00:47:03.374Z,9.33
2018-09-29T00:49:31.624Z,9.43
2018-09-29T00:51:59.905Z,8.37
2018-09-29T00:54:28.214Z,9.73
2018-09-29T00:56:56.465Z,6.43
2018-09-29T00:59:24.775Z,11.00
2018-09-29T01:01:53.025Z,8.20
2018-09-29T01:04:21.304Z,4.33
2018-09-29T01:06:49.656Z,4.93
2018-09-29T01:09:17.938Z,9.10
2018-09-29T01:11:46.193Z,7.00
2018-09-29T01:14:14.681Z,8.23
2018-09-29T01:16:42.931Z,10.30
2018-09-29T01:19:11.165Z,10.13
2018-09-29T01:21:39.606Z,6.83
2018-09-29T01:24:07.890Z,10.70
2018-09-29T01:26:36.153Z,8.63
2018-09-29T01:29:04.395Z,8.27
2018-09-29T01:31:32.674Z,8.63
2018-09-29T01:34:00.946Z,8.03
2018-09-29T01:36:29.286Z,6.67
2018-09-29T01:38:57.529Z,9.00
2018-09-29T01:41:25.846Z,9.17
2018-09-29T01:43:54.102Z,9.60
2018-09-29T01:46:22.442Z,10.30
2018-09-29T01:48:50.726Z,10.60
2018-09-29T01:51:18.989Z,9.70
2018-09-29T01:53:47.225Z,8.60
2018-09-29T01:56:15.481Z,6.93
2018-09-29T01:58:43.726Z,7.57
2018-09-29T02:01:12.002Z,8.30
2018-09-29T02:03:40.273Z,10.53
2018-09-29T02:06:08.528Z,7.90
2018-09-29T02:08:37.247Z,8.20
2018-09-29T02:11:05.593Z,8.57
2018-09-29T02:13:33.834Z,7.23
2018-09-29T02:16:02.094Z,10.30
2018-09-29T02:18:30.369Z,4.63
2018-09-29T02:20:58.669Z,7.37
2018-09-29T02:23:26.925Z,15.00
2018-09-29T02:25:58.674Z,7.10
2018-09-29T02:28:26.972Z,10.77
2018-09-29T02:30:55.238Z,8.17
2018-09-29T02:33:23.580Z,8.60
2018-09-29T02:35:51.829Z,11.47
2018-09-29T02:38:20.069Z,7.67
2018-09-29T02:40:48.346Z,16.73
2018-09-29T02:43:16.786Z,9.60
2018-09-29T02:45:45.029Z,9.93
2018-09-29T02:48:13.310Z,8.33
2018-09-29T02:50:41.574Z,11.23
2018-09-29T02:53:09.837Z,10.30
2018-09-29T02:55:38.206Z,6.53
2018-09-29T02:58:06.559Z,8.40
2018-09-29T03:00:35.254Z,9.03
2018-09-29T03:03:03.606Z,10.07
2018-09-29T03:05:31.865Z,8.70
2018-09-29T03:08:00.113Z,8.33
2018-09-29T03:10:28.562Z,10.50
2018-09-29T03:12:56.818Z,10.40
2018-09-29T03:15:25.063Z,19.40
2018-09-29T03:17:53.354Z,8.20
2018-09-29T03:20:21.646Z,9.43
2018-09-29T03:22:49.903Z,9.33
2018-09-29T03:25:18.276Z,12.47
2018-09-29T03:27:46.524Z,7.00
2018-09-29T03:30:14.816Z,6.63
2018-09-29T03:32:43.145Z,8.93
2018-09-29T03:35:11.398Z,8.10
2018-09-29T03:37:39.799Z,7.33
2018-09-29T03:42:31.211Z,8.50
2018-09-29T03:44:59.569Z,6.43
2018-09-29T03:47:27.859Z,5.13
2018-09-29T03:49:56.269Z,7.60
2018-09-29T03:52:24.537Z,7.83
2018-09-29T03:54:52.823Z,11.30
2018-09-29T03:57:21.074Z,10.17
2018-09-29T03:59:49.338Z,8.73
2018-09-29T04:02:17.619Z,13.87
2018-09-29T04:04:46.057Z,10.87
2018-09-29T04:07:14.327Z,7.93
2018-09-29T04:09:42.607Z,6.40
2018-09-29T04:12:10.891Z,8.37
2018-09-29T04:14:39.133Z,9.77
2018-09-29T04:17:07.443Z,7.23
2018-09-29T04:19:35.784Z,8.60
2018-09-29T04:22:04.044Z,10.60
2018-09-29T04:24:32.255Z,10.80
2018-09-29T04:27:00.533Z,10.60
2018-09-29T04:29:28.785Z,10.80
2018-09-29T04:31:57.103Z,18.70
2018-09-29T04:34:25.357Z,10.83
2018-09-29T04:36:53.617Z,6.60
2018-09-29T04:39:21.909Z,9.80
2018-09-29T04:41:50.463Z,8.40
2018-09-29T04:44:18.862Z,9.50
2018-09-29T04:46:47.147Z,9.93
2018-09-29T04:49:15.523Z,11.90
2018-09-29T04:51:43.728Z,9.43
2018-09-29T04:54:11.976Z,13.60
2018-09-29T04:56:40.253Z,7.53
2018-09-29T04:59:08.553Z,11.97
2018-09-29T05:01:36.895Z,10.90
2018-09-29T05:04:05.322Z,7.60
2018-09-29T05:06:33.655Z,5.43
2018-09-29T05:09:01.874Z,7.80
2018-09-29T05:11:30.263Z,8.70
2018-09-29T05:13:58.818Z,7.93
2018-09-29T05:16:27.042Z,7.50
2018-09-29T05:18:55.281Z,10.87
2018-09-29T05:21:23.556Z,9.93
2018-09-29T05:23:51.932Z,12.27
2018-09-29T05:26:20.217Z,8.63
2018-09-29T05:28:48.509Z,6.40
2018-09-29T05:31:16.861Z,11.27
2018-09-29T05:33:46.016Z,8.03
2018-09-29T05:36:14.434Z,7.67
2018-09-29T05:38:43.048Z,12.23
2018-09-29T05:41:11.333Z,13.17
2018-09-29T05:43:39.818Z,6.97
2018-09-29T05:46:08.093Z,10.80
2018-09-29T05:48:36.389Z,10.70
2018-09-29T05:51:04.779Z,10.73
2018-09-29T05:53:33.123Z,8.57
2018-09-29T05:56:01.441Z,6.67
2018-09-29T05:58:29.713Z,13.43
2018-09-29T06:00:58.048Z,11.00
2018-09-29T06:03:26.460Z,8.67
2018-09-29T06:05:54.784Z,11.53
2018-09-29T06:08:23.004Z,8.40
2018-09-29T06:10:51.293Z,6.80
2018-09-29T06:13:19.844Z,7.90
2018-09-29T06:15:48.146Z,9.33
2018-09-29T06:18:16.428Z,11.37
2018-09-29T06:20:44.764Z,12.23
2018-09-29T06:23:13.285Z,7.17
2018-09-29T06:25:41.589Z,7.67
2018-09-29T06:28:09.872Z,9.93
2018-09-29T06:30:38.210Z,10.33
2018-09-29T06:33:06.709Z,8.73
2018-09-29T06:35:35.126Z,12.17
2018-09-29T06:38:04.928Z,9.80
2018-09-29T06:40:33.469Z,11.00
2018-09-29T06:43:01.995Z,13.90
2018-09-29T06:45:31.878Z,14.33
2018-09-29T06:48:02.279Z,12.00
2018-09-29T06:50:33.284Z,8.50
2018-09-29T06:53:03.203Z,13.33
2018-09-29T06:55:37.958Z,9.93
2018-09-29T06:58:06.426Z,9.03
2018-09-29T07:00:34.692Z,12.13
2018-09-29T07:03:03.148Z,15.27
2018-09-29T07:05:31.422Z,7.37
2018-09-29T07:07:59.796Z,11.97
2018-09-29T07:10:28.073Z,15.63
2018-09-29T07:12:57.495Z,8.80
2018-09-29T07:15:26.247Z,14.37
2018-09-29T07:17:54.575Z,11.80
2018-09-29T07:20:23.230Z,12.47
2018-09-29T07:22:51.526Z,16.53
2018-09-29T07:25:20.110Z,18.80
2018-09-29T07:27:48.606Z,13.93
2018-09-29T07:30:16.935Z,19.20
2018-09-29T07:32:45.257Z,17.53
2018-09-29T07:35:30.463Z,16.13
2018-09-29T07:38:00.302Z,14.40
2018-09-29T07:40:28.938Z,13.77
2018-09-29T07:42:57.429Z,14.50
2018-09-29T07:45:26.316Z,9.70
2018-09-29T07:47:55.709Z,17.87
2018-09-29T07:50:24.221Z,16.37
2018-09-29T07:52:52.483Z,12.90
2018-09-29T07:55:20.892Z,16.97
2018-09-29T07:57:52.978Z,18.67
2018-09-29T08:00:21.407Z,13.47
2018-09-29T08:02:49.691Z,12.83
2018-09-29T08:05:18.967Z,16.77
2018-09-29T08:07:47.274Z,12.87
2018-09-29T08:10:15.638Z,23.20
2018-09-29T08:12:43.954Z,13.97
2018-09-29T08:15:12.255Z,16.77
2018-09-29T08:17:40.527Z,13.30
2018-09-29T08:20:08.862Z,11.57
2018-09-29T08:22:37.194Z,12.17
2018-09-29T08:25:05.525Z,12.40
2018-09-29T08:27:33.910Z,15.27
2018-09-29T08:30:02.235Z,13.10
2018-09-29T08:32:30.474Z,17.33
2018-09-29T08:34:58.932Z,17.20
2018-09-29T08:37:27.455Z,14.07
2018-09-29T08:39:55.730Z,17.30
2018-09-29T08:42:24.180Z,14.57
2018-09-29T08:44:52.470Z,14.63
2018-09-29T08:47:20.771Z,16.63
2018-09-29T08:49:49.029Z,9.03
2018-09-29T08:52:17.330Z,11.90
2018-09-29T08:54:45.602Z,15.07
2018-09-29T08:57:13.933Z,15.33
2018-09-29T08:59:42.571Z,15.27
2018-09-29T09:02:10.846Z,19.20
2018-09-29T09:04:39.529Z,12.93
2018-09-29T09:07:12.078Z,11.83
2018-09-29T09:09:40.375Z,15.00
2018-09-29T09:12:08.756Z,10.57
2018-09-29T09:14:37.045Z,11.13
2018-09-29T09:17:05.665Z,12.87
2018-09-29T09:19:33.998Z,14.97
2018-09-29T09:22:02.342Z,11.30
2018-09-29T09:24:30.709Z,11.90
2018-09-29T09:27:00.362Z,11.43
2018-09-29T09:29:28.711Z,18.20
2018-09-29T09:31:57.605Z,8.13
2018-09-29T09:34:25.943Z,12.70
2018-09-29T09:36:54.217Z,12.60
2018-09-29T09:39:22.541Z,8.47
2018-09-29T09:41:50.814Z,9.80
2018-09-29T09:44:19.230Z,12.93
2018-09-29T09:46:47.503Z,8.47
2018-09-29T09:49:15.828Z,13.20
2018-09-29T09:51:44.143Z,8.90
2018-09-29T09:54:12.416Z,15.83
2018-09-29T09:56:40.799Z,13.07
2018-09-29T09:59:09.102Z,7.37
2018-09-29T10:01:42.746Z,11.67
2018-09-29T10:04:11.174Z,12.53
2018-09-29T10:06:39.477Z,12.43
2018-09-29T10:09:09.880Z,12.80
2018-09-29T10:11:38.210Z,8.00
2018-09-29T10:14:06.834Z,12.10
2018-09-29T10:16:35.408Z,10.30
2018-09-29T10:19:04.059Z,12.23
2018-09-29T10:21:32.451Z,11.03
2018-09-29T10:24:00.797Z,15.17
2018-09-29T10:26:29.093Z,8.57
2018-09-29T10:28:57.497Z,16.97
2018-09-29T10:31:26.051Z,7.53
2018-09-29T10:33:54.356Z,12.93
2018-09-29T10:36:22.619Z,8.80
2018-09-29T10:38:50.925Z,8.63
2018-09-29T10:41:19.353Z,8.47
2018-09-29T10:43:47.657Z,7.33
2018-09-29T10:46:15.930Z,5.57
2018-09-29T10:48:44.568Z,5.37
2018-09-29T10:51:13.058Z,11.73
2018-09-29T10:53:41.541Z,11.90
2018-09-29T10:56:09.829Z,10.63
2018-09-29T10:58:38.316Z,6.93
2018-09-29T11:01:08.729Z,8.30
2018-09-29T11:03:37.519Z,5.43
2018-09-29T11:06:05.828Z,8.30
2018-09-29T11:08:34.089Z,16.50
2018-09-29T11:11:02.391Z,7.80
2018-09-29T11:13:30.649Z,9.03
2018-09-29T11:15:58.993Z,5.63
2018-09-29T11:18:27.320Z,8.60
2018-09-29T11:20:55.617Z,6.20
2018-09-29T11:23:23.874Z,8.10
2018-09-29T11:25:52.295Z,10.30
2018-09-29T11:28:21.765Z,5.90
2018-09-29T11:30:50.317Z,7.47
2018-09-29T11:33:18.777Z,8.07
2018-09-29T11:35:47.185Z,8.60
2018-09-29T11:38:15.521Z,10.50
2018-09-29T11:40:43.817Z,5.50
2018-09-29T11:43:12.121Z,7.97
2018-09-29T11:45:40.416Z,7.43
2018-09-29T11:48:08.970Z,4.47
2018-09-29T11:50:37.276Z,9.40
2018-09-29T11:53:05.549Z,3.07
2018-09-29T11:55:33.805Z,4.87
2018-09-29T11:58:02.139Z,5.10
2018-09-29T12:00:30.458Z,5.87
2018-09-29T12:02:58.722Z,5.00
2018-09-29T12:05:27.082Z,6.37
2018-09-29T12:07:55.379Z,4.33
2018-09-29T12:10:23.692Z,6.90
2018-09-29T12:12:52.058Z,6.27
2018-09-29T12:15:21.332Z,6.40
2018-09-29T12:17:49.677Z,8.17
2018-09-29T12:20:17.946Z,5.00
2018-09-29T12:22:46.190Z,5.77
2018-09-29T12:25:14.461Z,4.03
2018-09-29T12:27:42.762Z,6.77
2018-09-29T12:30:11.443Z,6.20
2018-09-29T12:32:39.799Z,5.30
2018-09-29T12:35:08.217Z,6.57
2018-09-29T12:37:36.660Z,7.60
2018-09-29T12:40:05.061Z,3.97
2018-09-29T12:42:33.467Z,4.30
2018-09-29T12:45:01.683Z,8.20
2018-09-29T12:47:30.062Z,6.20
2018-09-29T12:49:58.582Z,5.97
2018-09-29T12:52:27.041Z,6.30
2018-09-29T12:54:56.156Z,5.07
2018-09-29T12:57:24.424Z,7.07
2018-09-29T12:59:52.829Z,6.63
2018-09-29T13:02:21.220Z,8.80
2018-09-29T13:04:49.596Z,8.70
2018-09-29T13:07:18.967Z,6.10
2018-09-29T13:09:47.289Z,6.93
2018-09-29T13:12:15.566Z,3.33
2018-09-29T13:14:44.659Z,5.57
2018-09-29T13:17:12.970Z,6.33
2018-09-29T13:19:41.297Z,5.93
2018-09-29T13:22:09.563Z,7.47
2018-09-29T13:24:37.862Z,4.67
2018-09-29T13:27:06.472Z,3.90
2018-09-29T13:29:34.827Z,7.20
2018-09-29T13:32:03.349Z,9.30
2018-09-29T13:34:31.607Z,4.70
2018-09-29T13:36:59.965Z,7.10
2018-09-29T13:39:29.500Z,3.53
2018-09-29T13:41:57.826Z,4.60
2018-09-29T13:44:26.176Z,4.60
2018-09-29T13:46:58.087Z,4.77
2018-09-29T13:49:27.934Z,6.60
2018-09-29T13:51:56.315Z,4.33
2018-09-29T13:54:28.413Z,3.90
2018-09-29T13:57:07.003Z,5.27
2018-09-29T13:59:46.762Z,4.53
2018-09-29T14:02:19.310Z,5.57
2018-09-29T14:04:49.555Z,7.30
2018-09-29T14:10:12.939Z,3.07
2018-09-29T14:12:41.216Z,5.70
2018-09-29T14:15:09.555Z,5.93
2018-09-29T14:17:38.725Z,5.43
2018-09-29T14:20:07.443Z,6.43
2018-09-29T14:22:35.802Z,9.67
2018-09-29T14:25:04.131Z,6.23
2018-09-29T14:27:32.443Z,7.03
2018-09-29T14:30:00.860Z,4.90
2018-09-29T14:32:30.244Z,4.20
2018-09-29T14:34:58.787Z,6.23
2018-09-29T14:37:27.276Z,4.77
2018-09-29T14:39:55.680Z,6.37
2018-09-29T14:42:24.065Z,4.47
2018-09-29T14:44:52.421Z,8.30
2018-09-29T14:47:20.756Z,7.17
2018-09-29T14:49:50.978Z,7.00
2018-09-29T14:52:19.357Z,4.47
2018-09-29T14:54:47.851Z,7.73
2018-09-29T14:57:16.162Z,3.23
2018-09-29T14:59:44.539Z,6.67
2018-09-29T15:02:12.947Z,8.20
2018-09-29T15:04:41.231Z,6.43
2018-09-29T15:07:09.577Z,5.80
2018-09-29T15:09:37.915Z,6.30
2018-09-29T15:12:06.259Z,7.40
2018-09-29T15:14:34.584Z,7.10
2018-09-29T15:17:03.073Z,8.33
2018-09-29T15:19:31.442Z,7.87
2018-09-29T15:21:59.783Z,9.57
2018-09-29T15:24:28.247Z,6.80
2018-09-29T15:26:56.660Z,8.63
2018-09-29T15:29:25.122Z,9.20
2018-09-29T15:31:53.442Z,6.07
2018-09-29T15:34:21.766Z,6.63
2018-09-29T15:36:50.186Z,6.60
2018-09-29T15:39:18.530Z,4.77
2018-09-29T15:41:49.062Z,7.20
2018-09-29T15:44:17.505Z,7.73
2018-09-29T15:46:45.919Z,5.50
2018-09-29T15:49:14.256Z,6.20
2018-09-29T15:51:42.610Z,5.07
2018-09-29T15:54:11.251Z,5.17
2018-09-29T15:56:39.854Z,5.07
2018-09-29T15:59:08.130Z,6.43
2018-09-29T16:01:36.582Z,4.67
2018-09-29T16:04:04.950Z,6.70
2018-09-29T16:06:33.271Z,5.20
2018-09-29T16:09:01.670Z,4.57
2018-09-29T16:11:29.913Z,3.63
2018-09-29T16:13:58.237Z,7.57
2018-09-29T16:16:26.575Z,3.53
2018-09-29T16:18:54.875Z,5.70
2018-09-29T16:21:23.337Z,4.57
2018-09-29T16:23:51.805Z,4.93
2018-09-29T16:26:20.143Z,7.53
2018-09-29T16:28:48.493Z,4.27
2018-09-29T16:31:18.003Z,7.60
2018-09-29T16:33:46.279Z,6.70
2018-09-29T16:36:14.603Z,7.30
2018-09-29T16:38:43.266Z,6.30
2018-09-29T16:41:11.672Z,5.30
2018-09-29T16:43:40.060Z,4.70
2018-09-29T16:46:09.242Z,6.93
2018-09-29T16:48:37.577Z,6.97
2018-09-29T16:51:05.891Z,9.73
2018-09-29T16:53:34.307Z,12.50
2018-09-29T16:56:02.605Z,5.57
2018-09-29T16:58:30.905Z,6.27
2018-09-29T17:01:00.213Z,6.53
2018-09-29T17:03:28.617Z,4.47
2018-09-29T17:05:56.893Z,10.40
2018-09-29T17:08:25.293Z,6.97
2018-09-29T17:10:53.615Z,6.10
2018-09-29T17:13:21.958Z,6.33
2018-09-29T17:15:50.428Z,5.93
2018-09-29T17:18:18.676Z,6.27
2018-09-29T17:20:47.132Z,6.67
2018-09-29T17:23:16.435Z,9.50
2018-09-29T17:25:44.775Z,6.43
2018-09-29T17:28:13.062Z,4.93
2018-09-29T17:30:41.449Z,6.10
2018-09-29T17:33:11.101Z,6.53
2018-09-29T17:35:39.394Z,5.63
2018-09-29T17:38:11.417Z,7.47
2018-09-29T17:40:39.698Z,6.60
2018-09-29T17:43:08.176Z,6.27
2018-09-29T17:45:36.518Z,9.67
2018-09-29T17:48:04.914Z,10.87
2018-09-29T17:50:33.326Z,11.65
2018-09-29T17:53:01.834Z,7.73
2018-09-29T17:55:30.286Z,4.10
2018-09-29T17:57:58.627Z,6.90
2018-09-29T18:00:26.990Z,4.80
2018-09-29T18:02:55.378Z,4.27
2018-09-29T18:05:23.840Z,8.53
2018-09-29T18:07:52.338Z,4.07
2018-09-29T18:10:20.696Z,4.30
2018-09-29T18:12:49.076Z,6.40
2018-09-29T18:15:17.498Z,6.67
2018-09-29T18:17:45.960Z,4.30
2018-09-29T18:20:14.352Z,6.40
2018-09-29T18:22:42.716Z,11.17
2018-09-29T18:25:11.410Z,9.03
2018-09-29T18:27:39.880Z,6.67
2018-09-29T18:30:08.290Z,5.03
2018-09-29T18:32:36.671Z,11.27
2018-09-29T18:35:05.191Z,8.97
2018-09-29T18:37:33.519Z,6.53
2018-09-29T18:40:01.934Z,4.47
2018-09-29T18:42:30.333Z,7.37
2018-09-29T18:44:58.794Z,3.93
2018-09-29T18:47:27.071Z,3.20
2018-09-29T18:49:55.558Z,5.77
2018-09-29T18:52:24.274Z,4.40
2018-09-29T18:54:52.758Z,4.37
2018-09-29T18:57:21.187Z,2.67
2018-09-29T18:59:49.591Z,9.53
2018-09-29T19:02:18.007Z,4.73
2018-09-29T19:04:46.484Z,6.80
2018-09-29T19:07:14.990Z,4.43
2018-09-29T19:09:43.423Z,4.83
2018-09-29T19:12:11.793Z,3.50
2018-09-29T19:14:40.196Z,5.90
2018-09-29T19:17:08.561Z,5.47
2018-09-29T19:19:37.020Z,6.50
2018-09-29T19:22:05.395Z,8.53
2018-09-29T19:24:33.798Z,4.20
2018-09-29T19:27:02.193Z,7.00
2018-09-29T19:29:30.552Z,4.83
2018-09-29T19:31:58.919Z,9.63
2018-09-29T19:34:27.275Z,7.97
2018-09-29T19:36:55.699Z,4.80
2018-09-29T19:39:24.246Z,3.77
2018-09-29T19:41:52.647Z,3.13
2018-09-29T19:44:20.988Z,5.37
2018-09-29T19:46:49.327Z,4.53
2018-09-29T19:49:18.192Z,4.33
2018-09-29T19:51:46.776Z,3.70
2018-09-29T19:54:15.078Z,6.13
2018-09-29T19:56:43.334Z,11.13
2018-09-29T19:59:11.610Z,7.60
2018-09-29T20:01:39.937Z,6.13
2018-09-29T20:04:08.187Z,3.87
2018-09-29T20:06:36.537Z,6.70
2018-09-29T20:09:07.190Z,8.17
2018-09-29T20:11:35.461Z,7.23
2018-09-29T20:14:03.706Z,5.27
2018-09-29T20:16:33.653Z,10.80
2018-09-29T20:19:02.137Z,5.27
2018-09-29T20:21:30.387Z,6.97
2018-09-29T20:23:58.910Z,9.63
2018-09-29T20:26:27.170Z,5.87
2018-09-29T20:28:55.436Z,5.70
2018-09-29T20:31:23.702Z,5.07
2018-09-29T20:33:52.004Z,7.93
2018-09-29T20:36:20.278Z,8.57
2018-09-29T20:38:48.702Z,5.97
2018-09-29T20:41:16.974Z,8.17
2018-09-29T20:43:45.237Z,4.10
2018-09-29T20:46:14.645Z,8.08
2018-09-29T20:48:43.021Z,7.20
2018-09-29T20:51:11.570Z,8.20
2018-09-29T20:53:40.350Z,10.67
2018-09-29T20:56:08.834Z,10.03
2018-09-29T20:58:37.377Z,6.80
2018-09-29T21:01:06.415Z,8.30
2018-09-29T21:03:34.730Z,7.17
2018-09-29T21:06:03.339Z,9.23
2018-09-29T21:08:31.683Z,13.40
2018-09-29T21:10:59.992Z,10.73
2018-09-29T21:13:28.663Z,14.67
2018-09-29T21:15:57.440Z,13.03
2018-09-29T21:18:25.852Z,15.53
2018-09-29T21:20:54.267Z,15.80
2018-09-29T21:23:22.582Z,10.10
2018-09-29T21:25:50.874Z,11.40
2018-09-29T21:28:19.323Z,11.17
2018-09-29T21:30:47.933Z,13.97
2018-09-29T21:33:16.250Z,11.30
2018-09-29T21:35:44.525Z,11.60
2018-09-29T21:38:12.816Z,9.00
2018-09-29T21:40:41.090Z,10.43
2018-09-29T21:43:09.437Z,9.63
2018-09-29T21:45:37.804Z,14.10
2018-09-29T21:48:06.144Z,6.53
2018-09-29T21:50:34.462Z,7.80
2018-09-29T21:53:02.815Z,8.33
2018-09-29T21:55:31.593Z,11.30
2018-09-29T21:57:59.927Z,7.93
2018-09-29T22:00:33.831Z,6.20
2018-09-29T22:03:02.130Z,9.70
2018-09-29T22:05:31.143Z,5.63
2018-09-29T22:07:59.638Z,10.53
2018-09-29T22:10:27.963Z,7.13
2018-09-29T22:12:56.234Z,5.90
2018-09-29T22:15:24.547Z,11.20
2018-09-29T22:17:52.858Z,7.20
2018-09-29T22:20:21.095Z,7.33
2018-09-29T22:22:50.256Z,10.67
2018-09-29T22:25:18.569Z,11.77
2018-09-29T22:27:46.856Z,11.13
2018-09-29T22:30:15.221Z,13.93
2018-09-29T22:32:43.497Z,11.30
2018-09-29T22:35:11.785Z,10.63
2018-09-29T22:37:40.139Z,8.50
2018-09-29T22:40:08.481Z,11.57
2018-09-29T22:42:36.815Z,12.13
2018-09-29T22:45:05.135Z,11.53
2018-09-29T22:47:33.499Z,8.67
2018-09-29T22:50:01.797Z,14.07
2018-09-29T22:52:30.066Z,12.33
2018-09-29T22:54:58.347Z,15.97
2018-09-29T22:57:26.965Z,13.40
2018-09-29T22:59:55.189Z,7.43
2018-09-29T23:02:23.462Z,10.90
2018-09-29T23:04:51.725Z,9.10
2018-09-29T23:07:20.040Z,7.33
2018-09-29T23:09:48.322Z,9.13
2018-09-29T23:12:16.590Z,9.53
2018-09-29T23:14:45.254Z,13.43
2018-09-29T23:17:13.543Z,13.07
2018-09-29T23:19:41.892Z,13.17
2018-09-29T23:22:10.178Z,12.70
2018-09-29T23:24:38.877Z,15.87
2018-09-29T23:27:07.157Z,13.63
2018-09-29T23:29:35.453Z,14.23
2018-09-29T23:32:03.765Z,12.50
2018-09-29T23:34:32.126Z,11.03
2018-09-29T23:37:00.376Z,10.50
2018-09-29T23:39:37.066Z,10.40
2018-09-29T23:42:05.412Z,13.47
2018-09-29T23:44:33.705Z,13.60
2018-09-29T23:47:02.030Z,12.70
2018-09-29T23:49:30.542Z,13.67
2018-09-29T23:51:58.983Z,11.33
2018-09-29T23:54:27.293Z,13.13
2018-09-29T23:56:55.619Z,13.60
2018-09-29T23:59:23.885Z,8.53
